sensor_id;sensor_type;location;lat;lon;timestamp;P1;durP1;ratioP1;P2;durP2;ratioP2
10641;SDS011;5369;49.586;8.646;2023-11-21T00:01:48;5.93;;;2.50;;
10641;SDS011;5369;49.586;8.646;2023-11-21T00:04:14;5.27;;;2.27;;
10641;SDS011;5369;49.586;8.646;2023-11-21T00:06:40;4.57;;;2.60;;
10641;SDS011;5369;49.586;8.646;2023-11-21T00:09:06;7.20;;;2.73;;
10641;SDS011;5369;49.586;8.646;2023-11-21T00:11:33;7.27;;;2.97;;
10641;SDS011;5369;49.586;8.646;2023-11-21T00:13:59;7.77;;;3.50;;
10641;SDS011;5369;49.586;8.646;2023-11-21T00:16:26;7.03;;;3.00;;
10641;SDS011;5369;49.586;8.646;2023-11-21T00:18:52;5.57;;;2.40;;
10641;SDS011;5369;49.586;8.646;2023-11-21T00:21:18;5.33;;;2.57;;
10641;SDS011;5369;49.586;8.646;2023-11-21T00:23:44;5.87;;;2.70;;
10641;SDS011;5369;49.586;8.646;2023-11-21T00:26:10;6.63;;;2.60;;
10641;SDS011;5369;49.586;8.646;2023-11-21T00:28:36;6.80;;;2.77;;
10641;SDS011;5369;49.586;8.646;2023-11-21T00:31:02;6.67;;;2.67;;
10641;SDS011;5369;49.586;8.646;2023-11-21T00:33:29;8.53;;;2.97;;
10641;SDS011;5369;49.586;8.646;2023-11-21T00:35:55;10.63;;;3.90;;
10641;SDS011;5369;49.586;8.646;2023-11-21T00:38:21;7.20;;;2.93;;
10641;SDS011;5369;49.586;8.646;2023-11-21T00:40:48;5.10;;;2.47;;
10641;SDS011;5369;49.586;8.646;2023-11-21T00:43:14;6.57;;;2.90;;
10641;SDS011;5369;49.586;8.646;2023-11-21T00:45:40;6.53;;;2.60;;
10641;SDS011;5369;49.586;8.646;2023-11-21T00:48:07;5.43;;;2.80;;
10641;SDS011;5369;49.586;8.646;2023-11-21T00:50:33;6.00;;;2.67;;
10641;SDS011;5369;49.586;8.646;2023-11-21T00:52:59;6.93;;;2.87;;
10641;SDS011;5369;49.586;8.646;2023-11-21T00:55:27;8.67;;;3.00;;
10641;SDS011;5369;49.586;8.646;2023-11-21T00:57:55;5.93;;;2.70;;
10641;SDS011;5369;49.586;8.646;2023-11-21T01:00:21;6.40;;;2.70;;
10641;SDS011;5369;49.586;8.646;2023-11-21T01:02:48;4.33;;;2.40;;
10641;SDS011;5369;49.586;8.646;2023-11-21T01:05:14;7.07;;;2.60;;
10641;SDS011;5369;49.586;8.646;2023-11-21T01:07:40;6.70;;;2.70;;
10641;SDS011;5369;49.586;8.646;2023-11-21T01:10:07;8.50;;;3.40;;
10641;SDS011;5369;49.586;8.646;2023-11-21T01:12:34;6.00;;;2.90;;
10641;SDS011;5369;49.586;8.646;2023-11-21T01:15:01;7.03;;;2.90;;
10641;SDS011;5369;49.586;8.646;2023-11-21T01:17:28;6.03;;;2.40;;
10641;SDS011;5369;49.586;8.646;2023-11-21T01:19:54;5.63;;;3.03;;
10641;SDS011;5369;49.586;8.646;2023-11-21T01:22:21;7.37;;;2.90;;
10641;SDS011;5369;49.586;8.646;2023-11-21T01:24:51;9.57;;;2.70;;
10641;SDS011;5369;49.586;8.646;2023-11-21T01:27:17;7.40;;;2.93;;
10641;SDS011;5369;49.586;8.646;2023-11-21T01:29:43;4.93;;;2.47;;
10641;SDS011;5369;49.586;8.646;2023-11-21T01:32:10;5.20;;;2.70;;
10641;SDS011;5369;49.586;8.646;2023-11-21T01:34:36;5.87;;;3.30;;
10641;SDS011;5369;49.586;8.646;2023-11-21T01:37:03;6.20;;;2.87;;
10641;SDS011;5369;49.586;8.646;2023-11-21T01:39:30;7.53;;;3.07;;
10641;SDS011;5369;49.586;8.646;2023-11-21T01:41:57;4.63;;;2.60;;
10641;SDS011;5369;49.586;8.646;2023-11-21T01:44:24;5.47;;;2.70;;
10641;SDS011;5369;49.586;8.646;2023-11-21T01:46:50;5.67;;;2.60;;
10641;SDS011;5369;49.586;8.646;2023-11-21T01:49:17;5.13;;;2.50;;
10641;SDS011;5369;49.586;8.646;2023-11-21T01:51:46;6.43;;;2.87;;
10641;SDS011;5369;49.586;8.646;2023-11-21T01:54:14;5.83;;;3.10;;
10641;SDS011;5369;49.586;8.646;2023-11-21T01:56:41;6.43;;;2.90;;
10641;SDS011;5369;49.586;8.646;2023-11-21T01:59:07;10.10;;;3.10;;
10641;SDS011;5369;49.586;8.646;2023-11-21T02:01:33;6.40;;;3.40;;
10641;SDS011;5369;49.586;8.646;2023-11-21T02:03:59;6.13;;;2.90;;
10641;SDS011;5369;49.586;8.646;2023-11-21T02:06:27;6.50;;;2.80;;
10641;SDS011;5369;49.586;8.646;2023-11-21T02:08:56;5.80;;;2.90;;
10641;SDS011;5369;49.586;8.646;2023-11-21T02:11:22;4.77;;;2.90;;
10641;SDS011;5369;49.586;8.646;2023-11-21T02:13:49;9.33;;;3.07;;
10641;SDS011;5369;49.586;8.646;2023-11-21T02:16:15;7.93;;;3.30;;
10641;SDS011;5369;49.586;8.646;2023-11-21T02:18:41;6.83;;;3.00;;
10641;SDS011;5369;49.586;8.646;2023-11-21T02:21:08;7.63;;;3.30;;
10641;SDS011;5369;49.586;8.646;2023-11-21T02:23:35;6.03;;;2.97;;
10641;SDS011;5369;49.586;8.646;2023-11-21T02:26:02;7.00;;;3.37;;
10641;SDS011;5369;49.586;8.646;2023-11-21T02:28:29;6.73;;;3.00;;
10641;SDS011;5369;49.586;8.646;2023-11-21T02:30:55;6.60;;;3.30;;
10641;SDS011;5369;49.586;8.646;2023-11-21T02:33:23;8.90;;;3.70;;
10641;SDS011;5369;49.586;8.646;2023-11-21T02:35:49;5.83;;;3.10;;
10641;SDS011;5369;49.586;8.646;2023-11-21T02:38:20;6.90;;;2.90;;
10641;SDS011;5369;49.586;8.646;2023-11-21T02:40:46;5.93;;;2.83;;
10641;SDS011;5369;49.586;8.646;2023-11-21T02:43:13;6.13;;;3.03;;
10641;SDS011;5369;49.586;8.646;2023-11-21T02:45:39;4.70;;;2.70;;
10641;SDS011;5369;49.586;8.646;2023-11-21T02:48:07;7.40;;;2.63;;
10641;SDS011;5369;49.586;8.646;2023-11-21T02:50:33;7.07;;;2.87;;
10641;SDS011;5369;49.586;8.646;2023-11-21T02:53:00;5.07;;;2.70;;
10641;SDS011;5369;49.586;8.646;2023-11-21T02:55:27;5.47;;;2.63;;
10641;SDS011;5369;49.586;8.646;2023-11-21T02:57:54;6.50;;;2.40;;
10641;SDS011;5369;49.586;8.646;2023-11-21T03:00:21;5.93;;;2.60;;
10641;SDS011;5369;49.586;8.646;2023-11-21T03:02:49;5.90;;;2.63;;
10641;SDS011;5369;49.586;8.646;2023-11-21T03:05:15;5.93;;;2.73;;
10641;SDS011;5369;49.586;8.646;2023-11-21T03:07:41;6.07;;;2.70;;
10641;SDS011;5369;49.586;8.646;2023-11-21T03:10:08;5.03;;;2.70;;
10641;SDS011;5369;49.586;8.646;2023-11-21T03:12:36;4.90;;;2.60;;
10641;SDS011;5369;49.586;8.646;2023-11-21T03:15:03;6.03;;;3.10;;
10641;SDS011;5369;49.586;8.646;2023-11-21T03:17:31;6.80;;;2.73;;
10641;SDS011;5369;49.586;8.646;2023-11-21T03:19:59;5.20;;;3.03;;
10641;SDS011;5369;49.586;8.646;2023-11-21T03:22:25;6.40;;;2.70;;
10641;SDS011;5369;49.586;8.646;2023-11-21T03:24:51;5.17;;;3.00;;
10641;SDS011;5369;49.586;8.646;2023-11-21T03:27:18;6.37;;;3.17;;
10641;SDS011;5369;49.586;8.646;2023-11-21T03:29:44;6.63;;;2.90;;
10641;SDS011;5369;49.586;8.646;2023-11-21T03:32:12;6.03;;;2.70;;
10641;SDS011;5369;49.586;8.646;2023-11-21T03:34:52;6.40;;;3.03;;
10641;SDS011;5369;49.586;8.646;2023-11-21T03:37:20;6.97;;;2.90;;
10641;SDS011;5369;49.586;8.646;2023-11-21T03:39:46;7.03;;;2.70;;
10641;SDS011;5369;49.586;8.646;2023-11-21T03:42:12;5.97;;;2.80;;
10641;SDS011;5369;49.586;8.646;2023-11-21T03:44:38;8.43;;;3.20;;
10641;SDS011;5369;49.586;8.646;2023-11-21T03:47:04;8.63;;;3.70;;
10641;SDS011;5369;49.586;8.646;2023-11-21T03:49:31;7.67;;;3.37;;
10641;SDS011;5369;49.586;8.646;2023-11-21T03:51:57;6.60;;;3.23;;
10641;SDS011;5369;49.586;8.646;2023-11-21T03:54:23;6.50;;;3.50;;
10641;SDS011;5369;49.586;8.646;2023-11-21T03:56:49;5.07;;;2.93;;
10641;SDS011;5369;49.586;8.646;2023-11-21T03:59:15;4.63;;;2.80;;
10641;SDS011;5369;49.586;8.646;2023-11-21T04:01:41;5.20;;;3.10;;
10641;SDS011;5369;49.586;8.646;2023-11-21T04:04:07;4.30;;;2.97;;
10641;SDS011;5369;49.586;8.646;2023-11-21T04:06:33;6.97;;;4.20;;
10641;SDS011;5369;49.586;8.646;2023-11-21T04:09:01;6.50;;;3.40;;
10641;SDS011;5369;49.586;8.646;2023-11-21T04:11:29;5.90;;;3.40;;
10641;SDS011;5369;49.586;8.646;2023-11-21T04:13:56;6.87;;;3.30;;
10641;SDS011;5369;49.586;8.646;2023-11-21T04:16:22;6.67;;;3.03;;
10641;SDS011;5369;49.586;8.646;2023-11-21T04:18:48;4.07;;;3.10;;
10641;SDS011;5369;49.586;8.646;2023-11-21T04:21:14;5.43;;;3.70;;
10641;SDS011;5369;49.586;8.646;2023-11-21T04:23:40;7.70;;;3.83;;
10641;SDS011;5369;49.586;8.646;2023-11-21T04:26:07;5.97;;;3.40;;
10641;SDS011;5369;49.586;8.646;2023-11-21T04:28:33;6.50;;;3.70;;
10641;SDS011;5369;49.586;8.646;2023-11-21T04:30:59;6.73;;;3.37;;
10641;SDS011;5369;49.586;8.646;2023-11-21T04:33:25;4.50;;;3.43;;
10641;SDS011;5369;49.586;8.646;2023-11-21T04:35:52;5.13;;;3.47;;
10641;SDS011;5369;49.586;8.646;2023-11-21T04:38:18;7.30;;;3.47;;
10641;SDS011;5369;49.586;8.646;2023-11-21T04:40:44;6.90;;;3.43;;
10641;SDS011;5369;49.586;8.646;2023-11-21T04:43:10;5.13;;;3.47;;
10641;SDS011;5369;49.586;8.646;2023-11-21T04:45:37;5.63;;;3.23;;
10641;SDS011;5369;49.586;8.646;2023-11-21T04:48:03;6.17;;;3.63;;
10641;SDS011;5369;49.586;8.646;2023-11-21T04:50:30;6.33;;;3.20;;
10641;SDS011;5369;49.586;8.646;2023-11-21T04:52:56;4.97;;;2.90;;
10641;SDS011;5369;49.586;8.646;2023-11-21T04:55:22;6.80;;;3.60;;
10641;SDS011;5369;49.586;8.646;2023-11-21T04:57:49;4.77;;;3.40;;
10641;SDS011;5369;49.586;8.646;2023-11-21T05:00:15;5.70;;;3.30;;
10641;SDS011;5369;49.586;8.646;2023-11-21T05:02:41;5.57;;;3.57;;
10641;SDS011;5369;49.586;8.646;2023-11-21T05:05:09;6.47;;;4.13;;
10641;SDS011;5369;49.586;8.646;2023-11-21T05:07:35;5.53;;;4.03;;
10641;SDS011;5369;49.586;8.646;2023-11-21T05:10:01;8.90;;;6.03;;
10641;SDS011;5369;49.586;8.646;2023-11-21T05:12:36;8.73;;;5.00;;
10641;SDS011;5369;49.586;8.646;2023-11-21T05:15:06;5.47;;;3.83;;
10641;SDS011;5369;49.586;8.646;2023-11-21T05:17:35;5.70;;;4.23;;
10641;SDS011;5369;49.586;8.646;2023-11-21T05:20:01;5.57;;;4.03;;
10641;SDS011;5369;49.586;8.646;2023-11-21T05:22:34;6.13;;;3.77;;
10641;SDS011;5369;49.586;8.646;2023-11-21T05:25:00;6.87;;;4.30;;
10641;SDS011;5369;49.586;8.646;2023-11-21T05:27:28;6.20;;;4.37;;
10641;SDS011;5369;49.586;8.646;2023-11-21T05:29:54;4.90;;;3.90;;
10641;SDS011;5369;49.586;8.646;2023-11-21T05:32:21;5.37;;;3.90;;
10641;SDS011;5369;49.586;8.646;2023-11-21T05:34:48;9.27;;;4.13;;
10641;SDS011;5369;49.586;8.646;2023-11-21T05:37:14;6.50;;;4.03;;
10641;SDS011;5369;49.586;8.646;2023-11-21T05:39:40;6.20;;;3.90;;
10641;SDS011;5369;49.586;8.646;2023-11-21T05:42:06;5.37;;;3.97;;
10641;SDS011;5369;49.586;8.646;2023-11-21T05:44:34;6.73;;;4.60;;
10641;SDS011;5369;49.586;8.646;2023-11-21T05:47:00;8.37;;;4.50;;
10641;SDS011;5369;49.586;8.646;2023-11-21T05:49:26;7.87;;;4.40;;
10641;SDS011;5369;49.586;8.646;2023-11-21T05:51:55;5.60;;;3.83;;
10641;SDS011;5369;49.586;8.646;2023-11-21T05:54:22;5.80;;;4.20;;
10641;SDS011;5369;49.586;8.646;2023-11-21T05:56:49;8.90;;;5.63;;
10641;SDS011;5369;49.586;8.646;2023-11-21T05:59:15;8.73;;;7.10;;
10641;SDS011;5369;49.586;8.646;2023-11-21T06:01:41;8.83;;;7.87;;
10641;SDS011;5369;49.586;8.646;2023-11-21T06:04:07;12.17;;;9.27;;
10641;SDS011;5369;49.586;8.646;2023-11-21T06:06:34;10.23;;;9.17;;
10641;SDS011;5369;49.586;8.646;2023-11-21T06:09:01;9.70;;;8.70;;
10641;SDS011;5369;49.586;8.646;2023-11-21T06:11:27;9.10;;;8.17;;
10641;SDS011;5369;49.586;8.646;2023-11-21T06:13:53;11.13;;;8.30;;
10641;SDS011;5369;49.586;8.646;2023-11-21T06:16:19;11.37;;;8.63;;
10641;SDS011;5369;49.586;8.646;2023-11-21T06:18:46;10.67;;;7.77;;
10641;SDS011;5369;49.586;8.646;2023-11-21T06:21:12;10.00;;;7.87;;
10641;SDS011;5369;49.586;8.646;2023-11-21T06:23:38;8.50;;;7.40;;
10641;SDS011;5369;49.586;8.646;2023-11-21T06:26:05;9.27;;;7.13;;
10641;SDS011;5369;49.586;8.646;2023-11-21T06:28:31;9.23;;;7.50;;
10641;SDS011;5369;49.586;8.646;2023-11-21T06:30:58;8.67;;;6.30;;
10641;SDS011;5369;49.586;8.646;2023-11-21T06:33:30;7.60;;;6.43;;
10641;SDS011;5369;49.586;8.646;2023-11-21T06:35:56;7.30;;;6.07;;
10641;SDS011;5369;49.586;8.646;2023-11-21T06:38:22;8.47;;;5.90;;
10641;SDS011;5369;49.586;8.646;2023-11-21T06:40:48;9.30;;;5.90;;
10641;SDS011;5369;49.586;8.646;2023-11-21T06:43:14;10.57;;;7.33;;
10641;SDS011;5369;49.586;8.646;2023-11-21T06:45:41;9.80;;;7.07;;
10641;SDS011;5369;49.586;8.646;2023-11-21T06:48:07;8.35;;;6.65;;
10641;SDS011;5369;49.586;8.646;2023-11-21T06:50:33;10.73;;;7.63;;
10641;SDS011;5369;49.586;8.646;2023-11-21T06:52:59;11.03;;;7.60;;
10641;SDS011;5369;49.586;8.646;2023-11-21T06:55:27;12.30;;;8.70;;
10641;SDS011;5369;49.586;8.646;2023-11-21T06:57:53;9.87;;;7.90;;
10641;SDS011;5369;49.586;8.646;2023-11-21T07:00:20;9.83;;;8.03;;
10641;SDS011;5369;49.586;8.646;2023-11-21T07:02:46;11.33;;;8.33;;
10641;SDS011;5369;49.586;8.646;2023-11-21T07:05:12;9.80;;;8.00;;
10641;SDS011;5369;49.586;8.646;2023-11-21T07:07:39;11.10;;;7.77;;
10641;SDS011;5369;49.586;8.646;2023-11-21T07:10:05;11.03;;;7.90;;
10641;SDS011;5369;49.586;8.646;2023-11-21T07:12:33;8.50;;;7.47;;
10641;SDS011;5369;49.586;8.646;2023-11-21T07:15:00;10.70;;;8.27;;
10641;SDS011;5369;49.586;8.646;2023-11-21T07:17:27;11.07;;;8.73;;
10641;SDS011;5369;49.586;8.646;2023-11-21T07:19:53;10.77;;;8.63;;
10641;SDS011;5369;49.586;8.646;2023-11-21T07:22:20;11.93;;;8.53;;
10641;SDS011;5369;49.586;8.646;2023-11-21T07:24:49;13.77;;;8.70;;
10641;SDS011;5369;49.586;8.646;2023-11-21T07:27:16;12.13;;;8.83;;
10641;SDS011;5369;49.586;8.646;2023-11-21T07:29:42;11.53;;;8.90;;
10641;SDS011;5369;49.586;8.646;2023-11-21T07:32:08;10.13;;;8.60;;
10641;SDS011;5369;49.586;8.646;2023-11-21T07:34:35;11.90;;;9.13;;
10641;SDS011;5369;49.586;8.646;2023-11-21T07:37:01;12.27;;;8.83;;
10641;SDS011;5369;49.586;8.646;2023-11-21T07:39:28;14.27;;;9.40;;
10641;SDS011;5369;49.586;8.646;2023-11-21T07:41:54;22.27;;;10.63;;
10641;SDS011;5369;49.586;8.646;2023-11-21T07:44:21;13.23;;;9.90;;
10641;SDS011;5369;49.586;8.646;2023-11-21T07:46:48;13.97;;;10.50;;
10641;SDS011;5369;49.586;8.646;2023-11-21T07:49:14;13.30;;;10.73;;
10641;SDS011;5369;49.586;8.646;2023-11-21T07:51:45;13.50;;;11.03;;
10641;SDS011;5369;49.586;8.646;2023-11-21T07:54:11;11.80;;;10.37;;
10641;SDS011;5369;49.586;8.646;2023-11-21T07:56:37;14.17;;;11.20;;
10641;SDS011;5369;49.586;8.646;2023-11-21T07:59:04;11.00;;;9.63;;
10641;SDS011;5369;49.586;8.646;2023-11-21T08:01:30;13.20;;;10.93;;
10641;SDS011;5369;49.586;8.646;2023-11-21T08:03:57;10.53;;;8.93;;
10641;SDS011;5369;49.586;8.646;2023-11-21T08:06:27;11.90;;;9.70;;
10641;SDS011;5369;49.586;8.646;2023-11-21T08:08:53;11.00;;;9.77;;
10641;SDS011;5369;49.586;8.646;2023-11-21T08:11:19;10.63;;;8.93;;
10641;SDS011;5369;49.586;8.646;2023-11-21T08:13:46;10.37;;;8.77;;
10641;SDS011;5369;49.586;8.646;2023-11-21T08:16:12;11.60;;;8.77;;
10641;SDS011;5369;49.586;8.646;2023-11-21T08:18:38;10.67;;;8.77;;
10641;SDS011;5369;49.586;8.646;2023-11-21T08:21:06;9.53;;;8.33;;
10641;SDS011;5369;49.586;8.646;2023-11-21T08:23:33;9.93;;;8.40;;
10641;SDS011;5369;49.586;8.646;2023-11-21T08:25:59;7.77;;;6.97;;
10641;SDS011;5369;49.586;8.646;2023-11-21T08:28:28;7.87;;;6.57;;
10641;SDS011;5369;49.586;8.646;2023-11-21T08:30:54;7.97;;;6.50;;
10641;SDS011;5369;49.586;8.646;2023-11-21T08:33:20;8.13;;;6.40;;
10641;SDS011;5369;49.586;8.646;2023-11-21T08:35:47;5.50;;;4.90;;
10641;SDS011;5369;49.586;8.646;2023-11-21T08:38:13;4.30;;;3.70;;
10641;SDS011;5369;49.586;8.646;2023-11-21T08:40:39;4.00;;;3.70;;
10641;SDS011;5369;49.586;8.646;2023-11-21T08:43:05;4.37;;;3.13;;
10641;SDS011;5369;49.586;8.646;2023-11-21T08:45:32;3.50;;;2.90;;
10641;SDS011;5369;49.586;8.646;2023-11-21T08:48:00;3.40;;;2.40;;
10641;SDS011;5369;49.586;8.646;2023-11-21T08:50:26;3.70;;;2.70;;
10641;SDS011;5369;49.586;8.646;2023-11-21T08:52:52;5.40;;;2.60;;
10641;SDS011;5369;49.586;8.646;2023-11-21T08:55:18;3.53;;;2.80;;
10641;SDS011;5369;49.586;8.646;2023-11-21T08:57:45;2.83;;;2.37;;
10641;SDS011;5369;49.586;8.646;2023-11-21T09:00:12;3.40;;;2.20;;
10641;SDS011;5369;49.586;8.646;2023-11-21T09:02:43;4.97;;;2.20;;
10641;SDS011;5369;49.586;8.646;2023-11-21T09:05:09;3.20;;;2.40;;
10641;SDS011;5369;49.586;8.646;2023-11-21T09:07:36;5.30;;;2.43;;
10641;SDS011;5369;49.586;8.646;2023-11-21T09:10:03;3.43;;;2.20;;
10641;SDS011;5369;49.586;8.646;2023-11-21T09:12:29;2.70;;;2.50;;
10641;SDS011;5369;49.586;8.646;2023-11-21T09:14:57;3.47;;;2.73;;
10641;SDS011;5369;49.586;8.646;2023-11-21T09:17:24;3.27;;;2.40;;
10641;SDS011;5369;49.586;8.646;2023-11-21T09:19:50;2.50;;;2.30;;
10641;SDS011;5369;49.586;8.646;2023-11-21T09:22:16;3.07;;;2.37;;
10641;SDS011;5369;49.586;8.646;2023-11-21T09:24:43;2.50;;;2.30;;
10641;SDS011;5369;49.586;8.646;2023-11-21T09:27:09;2.63;;;2.43;;
10641;SDS011;5369;49.586;8.646;2023-11-21T09:29:36;2.60;;;2.40;;
10641;SDS011;5369;49.586;8.646;2023-11-21T09:32:04;4.27;;;3.23;;
10641;SDS011;5369;49.586;8.646;2023-11-21T09:34:32;3.67;;;3.37;;
10641;SDS011;5369;49.586;8.646;2023-11-21T09:36:58;4.20;;;3.80;;
10641;SDS011;5369;49.586;8.646;2023-11-21T09:39:24;3.70;;;3.40;;
10641;SDS011;5369;49.586;8.646;2023-11-21T09:41:57;4.17;;;3.83;;
10641;SDS011;5369;49.586;8.646;2023-11-21T09:44:43;4.83;;;4.10;;
10641;SDS011;5369;49.586;8.646;2023-11-21T09:47:10;5.50;;;4.70;;
10641;SDS011;5369;49.586;8.646;2023-11-21T09:49:37;5.10;;;4.60;;
10641;SDS011;5369;49.586;8.646;2023-11-21T09:52:03;5.47;;;4.97;;
10641;SDS011;5369;49.586;8.646;2023-11-21T09:54:31;5.33;;;4.83;;
10641;SDS011;5369;49.586;8.646;2023-11-21T09:56:59;5.10;;;4.60;;
10641;SDS011;5369;49.586;8.646;2023-11-21T09:59:27;6.07;;;5.10;;
10641;SDS011;5369;49.586;8.646;2023-11-21T10:01:57;6.70;;;5.00;;
10641;SDS011;5369;49.586;8.646;2023-11-21T10:04:24;5.53;;;5.03;;
10641;SDS011;5369;49.586;8.646;2023-11-21T10:06:50;5.80;;;5.20;;
10641;SDS011;5369;49.586;8.646;2023-11-21T10:09:17;6.13;;;5.53;;
10641;SDS011;5369;49.586;8.646;2023-11-21T10:11:45;7.67;;;6.80;;
10641;SDS011;5369;49.586;8.646;2023-11-21T10:14:13;7.40;;;6.13;;
10641;SDS011;5369;49.586;8.646;2023-11-21T10:16:40;7.40;;;6.03;;
10641;SDS011;5369;49.586;8.646;2023-11-21T10:19:10;7.23;;;6.00;;
10641;SDS011;5369;49.586;8.646;2023-11-21T10:21:41;7.47;;;5.93;;
10641;SDS011;5369;49.586;8.646;2023-11-21T10:24:07;8.30;;;6.77;;
10641;SDS011;5369;49.586;8.646;2023-11-21T10:26:34;9.03;;;6.60;;
10641;SDS011;5369;49.586;8.646;2023-11-21T10:29:01;9.20;;;7.70;;
10641;SDS011;5369;49.586;8.646;2023-11-21T10:31:30;12.93;;;8.10;;
10641;SDS011;5369;49.586;8.646;2023-11-21T10:34:15;8.80;;;7.13;;
10641;SDS011;5369;49.586;8.646;2023-11-21T10:36:42;8.07;;;7.27;;
10641;SDS011;5369;49.586;8.646;2023-11-21T10:39:08;9.20;;;7.80;;
10641;SDS011;5369;49.586;8.646;2023-11-21T10:41:35;9.53;;;7.70;;
10641;SDS011;5369;49.586;8.646;2023-11-21T10:44:02;9.43;;;7.57;;
10641;SDS011;5369;49.586;8.646;2023-11-21T10:46:31;9.53;;;8.07;;
10641;SDS011;5369;49.586;8.646;2023-11-21T10:48:57;9.03;;;8.00;;
10641;SDS011;5369;49.586;8.646;2023-11-21T10:51:23;9.27;;;7.30;;
10641;SDS011;5369;49.586;8.646;2023-11-21T10:53:52;10.20;;;8.03;;
10641;SDS011;5369;49.586;8.646;2023-11-21T10:56:19;9.17;;;7.37;;
10641;SDS011;5369;49.586;8.646;2023-11-21T10:58:49;10.87;;;7.27;;
10641;SDS011;5369;49.586;8.646;2023-11-21T11:01:19;9.17;;;6.93;;
10641;SDS011;5369;49.586;8.646;2023-11-21T11:03:50;8.40;;;7.43;;
10641;SDS011;5369;49.586;8.646;2023-11-21T11:06:20;9.73;;;6.30;;
10641;SDS011;5369;49.586;8.646;2023-11-21T11:08:47;8.47;;;6.27;;
10641;SDS011;5369;49.586;8.646;2023-11-21T11:11:13;7.10;;;5.63;;
10641;SDS011;5369;49.586;8.646;2023-11-21T11:13:43;6.47;;;5.80;;
10641;SDS011;5369;49.586;8.646;2023-11-21T11:16:11;5.33;;;4.57;;
10641;SDS011;5369;49.586;8.646;2023-11-21T11:18:42;5.40;;;3.90;;
10641;SDS011;5369;49.586;8.646;2023-11-21T11:36:54;7.63;;;5.57;;
10641;SDS011;5369;49.586;8.646;2023-11-21T11:39:37;7.93;;;5.40;;
10641;SDS011;5369;49.586;8.646;2023-11-21T11:42:06;8.00;;;5.23;;
10641;SDS011;5369;49.586;8.646;2023-11-21T11:49:56;5.83;;;5.03;;
10641;SDS011;5369;49.586;8.646;2023-11-21T11:54:58;5.77;;;4.77;;
10641;SDS011;5369;49.586;8.646;2023-11-21T11:57:25;5.27;;;4.07;;
10641;SDS011;5369;49.586;8.646;2023-11-21T12:02:36;5.23;;;4.47;;
10641;SDS011;5369;49.586;8.646;2023-11-21T12:05:21;6.67;;;5.17;;
10641;SDS011;5369;49.586;8.646;2023-11-21T12:07:52;5.77;;;4.43;;
10641;SDS011;5369;49.586;8.646;2023-11-21T12:10:19;3.87;;;3.47;;
10641;SDS011;5369;49.586;8.646;2023-11-21T12:12:46;3.40;;;2.40;;
10641;SDS011;5369;49.586;8.646;2023-11-21T12:15:12;3.40;;;2.60;;
10641;SDS011;5369;49.586;8.646;2023-11-21T12:17:39;3.40;;;2.80;;
10641;SDS011;5369;49.586;8.646;2023-11-21T12:20:05;4.57;;;3.53;;
10641;SDS011;5369;49.586;8.646;2023-11-21T12:23:00;6.93;;;4.57;;
10641;SDS011;5369;49.586;8.646;2023-11-21T12:25:26;5.93;;;4.30;;
10641;SDS011;5369;49.586;8.646;2023-11-21T12:27:54;6.33;;;4.63;;
10641;SDS011;5369;49.586;8.646;2023-11-21T12:30:21;6.07;;;3.97;;
10641;SDS011;5369;49.586;8.646;2023-11-21T12:32:51;3.63;;;3.23;;
10641;SDS011;5369;49.586;8.646;2023-11-21T12:35:18;3.63;;;3.20;;
10641;SDS011;5369;49.586;8.646;2023-11-21T12:37:45;4.47;;;2.93;;
10641;SDS011;5369;49.586;8.646;2023-11-21T12:40:12;3.20;;;2.50;;
10641;SDS011;5369;49.586;8.646;2023-11-21T12:42:53;3.07;;;2.50;;
10641;SDS011;5369;49.586;8.646;2023-11-21T12:45:20;2.23;;;1.97;;
10641;SDS011;5369;49.586;8.646;2023-11-21T12:47:50;2.90;;;2.00;;
10641;SDS011;5369;49.586;8.646;2023-11-21T12:50:20;4.40;;;1.90;;
10641;SDS011;5369;49.586;8.646;2023-11-21T12:52:48;2.47;;;1.80;;
10641;SDS011;5369;49.586;8.646;2023-11-21T12:55:15;3.27;;;1.90;;
10641;SDS011;5369;49.586;8.646;2023-11-21T12:57:42;4.00;;;1.87;;
10641;SDS011;5369;49.586;8.646;2023-11-21T13:00:09;1.93;;;1.60;;
10641;SDS011;5369;49.586;8.646;2023-11-21T13:02:40;3.87;;;1.60;;
10641;SDS011;5369;49.586;8.646;2023-11-21T13:05:08;2.50;;;1.60;;
10641;SDS011;5369;49.586;8.646;2023-11-21T13:07:43;2.27;;;1.77;;
10641;SDS011;5369;49.586;8.646;2023-11-21T13:10:14;2.23;;;1.57;;
10641;SDS011;5369;49.586;8.646;2023-11-21T13:12:44;2.10;;;1.50;;
10641;SDS011;5369;49.586;8.646;2023-11-21T13:15:14;2.63;;;1.50;;
10641;SDS011;5369;49.586;8.646;2023-11-21T13:17:44;2.27;;;1.40;;
10641;SDS011;5369;49.586;8.646;2023-11-21T13:20:11;2.73;;;1.60;;
10641;SDS011;5369;49.586;8.646;2023-11-21T13:23:07;2.63;;;1.60;;
10641;SDS011;5369;49.586;8.646;2023-11-21T13:25:33;2.10;;;1.40;;
10641;SDS011;5369;49.586;8.646;2023-11-21T13:27:59;4.40;;;1.67;;
10641;SDS011;5369;49.586;8.646;2023-11-21T13:30:26;2.27;;;1.60;;
10641;SDS011;5369;49.586;8.646;2023-11-21T13:33:01;2.40;;;1.60;;
10641;SDS011;5369;49.586;8.646;2023-11-21T13:35:30;2.47;;;1.70;;
10641;SDS011;5369;49.586;8.646;2023-11-21T13:38:10;3.60;;;1.70;;
10641;SDS011;5369;49.586;8.646;2023-11-21T13:40:42;4.57;;;2.07;;
10641;SDS011;5369;49.586;8.646;2023-11-21T13:43:21;2.23;;;1.70;;
10641;SDS011;5369;49.586;8.646;2023-11-21T13:45:49;4.10;;;2.20;;
10641;SDS011;5369;49.586;8.646;2023-11-21T13:48:34;6.00;;;2.23;;
10641;SDS011;5369;49.586;8.646;2023-11-21T13:51:07;3.63;;;2.03;;
10641;SDS011;5369;49.586;8.646;2023-11-21T13:53:41;4.10;;;2.30;;
10641;SDS011;5369;49.586;8.646;2023-11-21T13:56:07;5.13;;;2.40;;
10641;SDS011;5369;49.586;8.646;2023-11-21T13:58:34;6.10;;;2.50;;
10641;SDS011;5369;49.586;8.646;2023-11-21T14:01:10;4.20;;;2.60;;
10641;SDS011;5369;49.586;8.646;2023-11-21T14:04:08;4.03;;;2.73;;
10641;SDS011;5369;49.586;8.646;2023-11-21T14:06:42;6.57;;;3.17;;
10641;SDS011;5369;49.586;8.646;2023-11-21T14:09:18;4.57;;;2.90;;
10641;SDS011;5369;49.586;8.646;2023-11-21T14:14:18;4.00;;;2.70;;
10641;SDS011;5369;49.586;8.646;2023-11-21T14:16:44;9.03;;;3.30;;
10641;SDS011;5369;49.586;8.646;2023-11-21T14:19:10;6.27;;;3.10;;
10641;SDS011;5369;49.586;8.646;2023-11-21T14:21:43;5.87;;;2.87;;
10641;SDS011;5369;49.586;8.646;2023-11-21T14:24:09;6.30;;;3.10;;
10641;SDS011;5369;49.586;8.646;2023-11-21T14:26:39;6.07;;;3.03;;
10641;SDS011;5369;49.586;8.646;2023-11-21T14:29:05;7.20;;;3.20;;
10641;SDS011;5369;49.586;8.646;2023-11-21T14:31:32;7.80;;;3.50;;
10641;SDS011;5369;49.586;8.646;2023-11-21T14:33:59;4.80;;;3.37;;
10641;SDS011;5369;49.586;8.646;2023-11-21T14:36:27;8.27;;;3.90;;
10641;SDS011;5369;49.586;8.646;2023-11-21T14:38:53;5.47;;;3.40;;
10641;SDS011;5369;49.586;8.646;2023-11-21T14:41:19;9.77;;;3.37;;
10641;SDS011;5369;49.586;8.646;2023-11-21T14:43:45;6.47;;;3.40;;
10641;SDS011;5369;49.586;8.646;2023-11-21T14:46:14;6.60;;;3.17;;
10641;SDS011;5369;49.586;8.646;2023-11-21T14:48:43;8.07;;;3.50;;
10641;SDS011;5369;49.586;8.646;2023-11-21T14:51:21;8.67;;;3.40;;
10641;SDS011;5369;49.586;8.646;2023-11-21T14:53:56;8.33;;;3.80;;
10641;SDS011;5369;49.586;8.646;2023-11-21T14:56:29;8.90;;;4.10;;
10641;SDS011;5369;49.586;8.646;2023-11-21T14:59:02;9.90;;;4.37;;
10641;SDS011;5369;49.586;8.646;2023-11-21T15:01:37;8.70;;;3.80;;
10641;SDS011;5369;49.586;8.646;2023-11-21T15:04:18;8.50;;;4.13;;
10641;SDS011;5369;49.586;8.646;2023-11-21T15:07:04;6.40;;;3.90;;
10641;SDS011;5369;49.586;8.646;2023-11-21T15:09:30;8.50;;;4.20;;
10641;SDS011;5369;49.586;8.646;2023-11-21T15:11:57;7.63;;;4.27;;
10641;SDS011;5369;49.586;8.646;2023-11-21T15:14:29;7.80;;;4.10;;
10641;SDS011;5369;49.586;8.646;2023-11-21T15:17:00;6.13;;;4.00;;
10641;SDS011;5369;49.586;8.646;2023-11-21T15:19:27;6.87;;;3.87;;
10641;SDS011;5369;49.586;8.646;2023-11-21T15:21:56;9.90;;;4.20;;
10641;SDS011;5369;49.586;8.646;2023-11-21T15:24:24;10.53;;;4.70;;
10641;SDS011;5369;49.586;8.646;2023-11-21T15:26:50;10.10;;;5.37;;
10641;SDS011;5369;49.586;8.646;2023-11-21T15:29:16;8.13;;;5.13;;
10641;SDS011;5369;49.586;8.646;2023-11-21T15:31:43;10.90;;;6.50;;
10641;SDS011;5369;49.586;8.646;2023-11-21T15:34:16;7.07;;;5.00;;